sensor_id;sensor_type;location;lat;lon;timestamp;P1;durP1;ratioP1;P2;durP2;ratioP2
33696;SDS011;20031;43.416;23.232;2023-06-14T00:01:00;17.48;;;2.33;;
33696;SDS011;20031;43.416;23.232;2023-06-14T00:03:28;11.88;;;2.30;;
33696;SDS011;20031;43.416;23.232;2023-06-14T00:05:54;17.17;;;2.33;;
33696;SDS011;20031;43.416;23.232;2023-06-14T00:08:19;20.92;;;2.55;;
33696;SDS011;20031;43.416;23.232;2023-06-14T00:10:47;14.93;;;2.65;;
33696;SDS011;20031;43.416;23.232;2023-06-14T00:13:13;21.88;;;2.70;;
33696;SDS011;20031;43.416;23.232;2023-06-14T00:15:39;12.32;;;2.50;;
33696;SDS011;20031;43.416;23.232;2023-06-14T00:18:05;27.02;;;2.95;;
33696;SDS011;20031;43.416;23.232;2023-06-14T00:20:31;13.52;;;3.30;;
33696;SDS011;20031;43.416;23.232;2023-06-14T00:23:00;15.23;;;2.78;;
33696;SDS011;20031;43.416;23.232;2023-06-14T00:25:27;13.23;;;2.83;;
33696;SDS011;20031;43.416;23.232;2023-06-14T00:27:53;16.17;;;2.85;;
33696;SDS011;20031;43.416;23.232;2023-06-14T00:30:19;17.92;;;3.00;;
33696;SDS011;20031;43.416;23.232;2023-06-14T00:32:45;13.93;;;2.58;;
33696;SDS011;20031;43.416;23.232;2023-06-14T00:35:11;12.35;;;2.53;;
33696;SDS011;20031;43.416;23.232;2023-06-14T00:37:36;10.02;;;2.20;;
33696;SDS011;20031;43.416;23.232;2023-06-14T00:40:02;22.42;;;2.72;;
33696;SDS011;20031;43.416;23.232;2023-06-14T00:42:29;13.35;;;2.97;;
33696;SDS011;20031;43.416;23.232;2023-06-14T00:44:55;20.30;;;2.97;;
33696;SDS011;20031;43.416;23.232;2023-06-14T00:47:20;8.07;;;2.40;;
33696;SDS011;20031;43.416;23.232;2023-06-14T00:49:46;6.47;;;2.17;;
33696;SDS011;20031;43.416;23.232;2023-06-14T00:52:13;15.23;;;2.60;;
33696;SDS011;20031;43.416;23.232;2023-06-14T00:54:40;12.82;;;2.88;;
33696;SDS011;20031;43.416;23.232;2023-06-14T00:57:09;15.20;;;3.05;;
33696;SDS011;20031;43.416;23.232;2023-06-14T00:59:45;15.43;;;2.17;;
33696;SDS011;20031;43.416;23.232;2023-06-14T01:04:37;13.00;;;2.57;;
33696;SDS011;20031;43.416;23.232;2023-06-14T01:07:20;9.60;;;2.15;;
33696;SDS011;20031;43.416;23.232;2023-06-14T01:13:11;12.15;;;2.30;;
33696;SDS011;20031;43.416;23.232;2023-06-14T01:15:24;13.73;;;2.38;;
33696;SDS011;20031;43.416;23.232;2023-06-14T01:17:50;12.52;;;2.45;;
33696;SDS011;20031;43.416;23.232;2023-06-14T01:20:17;16.20;;;2.30;;
33696;SDS011;20031;43.416;23.232;2023-06-14T01:22:50;7.30;;;2.25;;
33696;SDS011;20031;43.416;23.232;2023-06-14T01:25:18;13.90;;;2.72;;
33696;SDS011;20031;43.416;23.232;2023-06-14T01:27:46;15.52;;;2.75;;
33696;SDS011;20031;43.416;23.232;2023-06-14T01:30:14;17.92;;;2.97;;
33696;SDS011;20031;43.416;23.232;2023-06-14T01:32:40;11.10;;;2.50;;
33696;SDS011;20031;43.416;23.232;2023-06-14T01:35:06;11.57;;;2.45;;
33696;SDS011;20031;43.416;23.232;2023-06-14T01:37:32;12.05;;;3.08;;
33696;SDS011;20031;43.416;23.232;2023-06-14T01:39:58;11.43;;;2.15;;
33696;SDS011;20031;43.416;23.232;2023-06-14T01:42:24;14.63;;;2.25;;
33696;SDS011;20031;43.416;23.232;2023-06-14T01:44:50;9.98;;;2.55;;
33696;SDS011;20031;43.416;23.232;2023-06-14T01:47:18;10.15;;;2.10;;
33696;SDS011;20031;43.416;23.232;2023-06-14T01:49:45;11.85;;;2.60;;
33696;SDS011;20031;43.416;23.232;2023-06-14T01:52:11;12.20;;;2.42;;
33696;SDS011;20031;43.416;23.232;2023-06-14T01:54:37;11.48;;;2.90;;
33696;SDS011;20031;43.416;23.232;2023-06-14T01:57:06;13.20;;;3.25;;
33696;SDS011;20031;43.416;23.232;2023-06-14T01:59:33;13.35;;;3.67;;
33696;SDS011;20031;43.416;23.232;2023-06-14T02:02:00;10.98;;;2.95;;
33696;SDS011;20031;43.416;23.232;2023-06-14T02:04:26;15.30;;;3.08;;
33696;SDS011;20031;43.416;23.232;2023-06-14T02:06:52;18.60;;;3.40;;
33696;SDS011;20031;43.416;23.232;2023-06-14T02:09:17;16.38;;;3.35;;
33696;SDS011;20031;43.416;23.232;2023-06-14T02:11:43;14.38;;;3.15;;
33696;SDS011;20031;43.416;23.232;2023-06-14T02:14:08;16.42;;;3.00;;
33696;SDS011;20031;43.416;23.232;2023-06-14T02:16:36;12.63;;;3.30;;
33696;SDS011;20031;43.416;23.232;2023-06-14T02:19:02;13.95;;;3.00;;
33696;SDS011;20031;43.416;23.232;2023-06-14T02:21:27;16.90;;;3.22;;
33696;SDS011;20031;43.416;23.232;2023-06-14T02:23:53;9.98;;;3.17;;
33696;SDS011;20031;43.416;23.232;2023-06-14T02:26:18;10.10;;;3.10;;
33696;SDS011;20031;43.416;23.232;2023-06-14T02:28:44;13.38;;;3.20;;
33696;SDS011;20031;43.416;23.232;2023-06-14T02:31:09;21.70;;;3.17;;
33696;SDS011;20031;43.416;23.232;2023-06-14T02:33:34;21.38;;;3.80;;
33696;SDS011;20031;43.416;23.232;2023-06-14T02:36:00;14.82;;;3.60;;
33696;SDS011;20031;43.416;23.232;2023-06-14T02:38:28;16.92;;;3.63;;
33696;SDS011;20031;43.416;23.232;2023-06-14T02:40:53;20.13;;;3.95;;
33696;SDS011;20031;43.416;23.232;2023-06-14T02:43:19;14.55;;;3.47;;
33696;SDS011;20031;43.416;23.232;2023-06-14T02:45:45;16.27;;;3.30;;
33696;SDS011;20031;43.416;23.232;2023-06-14T02:48:10;23.05;;;3.30;;
33696;SDS011;20031;43.416;23.232;2023-06-14T02:50:36;14.10;;;3.30;;
33696;SDS011;20031;43.416;23.232;2023-06-14T02:53:01;19.90;;;3.20;;
33696;SDS011;20031;43.416;23.232;2023-06-14T02:55:28;19.17;;;3.20;;
33696;SDS011;20031;43.416;23.232;2023-06-14T02:57:54;22.67;;;3.85;;
33696;SDS011;20031;43.416;23.232;2023-06-14T03:00:19;15.80;;;3.33;;
33696;SDS011;20031;43.416;23.232;2023-06-14T03:02:45;19.88;;;3.60;;
33696;SDS011;20031;43.416;23.232;2023-06-14T03:05:11;17.45;;;3.30;;
33696;SDS011;20031;43.416;23.232;2023-06-14T03:07:37;27.48;;;3.63;;
33696;SDS011;20031;43.416;23.232;2023-06-14T03:10:06;17.88;;;3.45;;
33696;SDS011;20031;43.416;23.232;2023-06-14T03:12:35;27.33;;;3.88;;
33696;SDS011;20031;43.416;23.232;2023-06-14T03:15:01;31.45;;;3.22;;
33696;SDS011;20031;43.416;23.232;2023-06-14T03:17:27;15.82;;;3.20;;
33696;SDS011;20031;43.416;23.232;2023-06-14T03:19:55;22.15;;;3.60;;
33696;SDS011;20031;43.416;23.232;2023-06-14T03:22:20;18.85;;;3.85;;
33696;SDS011;20031;43.416;23.232;2023-06-14T03:24:47;16.67;;;4.72;;
33696;SDS011;20031;43.416;23.232;2023-06-14T03:27:13;20.38;;;4.35;;
33696;SDS011;20031;43.416;23.232;2023-06-14T03:29:39;15.70;;;3.85;;
33696;SDS011;20031;43.416;23.232;2023-06-14T03:32:05;16.40;;;4.15;;
33696;SDS011;20031;43.416;23.232;2023-06-14T03:34:30;23.20;;;4.38;;
33696;SDS011;20031;43.416;23.232;2023-06-14T03:36:56;21.15;;;4.00;;
33696;SDS011;20031;43.416;23.232;2023-06-14T03:39:21;15.98;;;3.30;;
33696;SDS011;20031;43.416;23.232;2023-06-14T03:41:47;18.52;;;3.33;;
33696;SDS011;20031;43.416;23.232;2023-06-14T03:44:16;14.85;;;3.30;;
33696;SDS011;20031;43.416;23.232;2023-06-14T03:46:43;12.23;;;3.05;;
33696;SDS011;20031;43.416;23.232;2023-06-14T03:49:08;9.18;;;2.88;;
33696;SDS011;20031;43.416;23.232;2023-06-14T03:51:34;12.63;;;4.25;;
33696;SDS011;20031;43.416;23.232;2023-06-14T03:54:00;10.98;;;2.65;;
33696;SDS011;20031;43.416;23.232;2023-06-14T03:56:26;18.23;;;2.30;;
33696;SDS011;20031;43.416;23.232;2023-06-14T03:58:52;13.52;;;2.38;;
33696;SDS011;20031;43.416;23.232;2023-06-14T04:01:17;7.45;;;2.10;;
33696;SDS011;20031;43.416;23.232;2023-06-14T04:03:43;10.40;;;2.28;;
33696;SDS011;20031;43.416;23.232;2023-06-14T04:06:08;13.27;;;2.40;;
33696;SDS011;20031;43.416;23.232;2023-06-14T04:08:34;10.02;;;2.10;;
33696;SDS011;20031;43.416;23.232;2023-06-14T04:11:00;8.10;;;2.10;;
33696;SDS011;20031;43.416;23.232;2023-06-14T04:13:26;10.65;;;2.67;;
33696;SDS011;20031;43.416;23.232;2023-06-14T04:15:51;7.43;;;2.30;;
33696;SDS011;20031;43.416;23.232;2023-06-14T04:18:17;11.82;;;2.70;;
33696;SDS011;20031;43.416;23.232;2023-06-14T04:20:44;6.93;;;2.35;;
33696;SDS011;20031;43.416;23.232;2023-06-14T04:23:17;10.70;;;2.60;;
33696;SDS011;20031;43.416;23.232;2023-06-14T04:25:46;11.60;;;2.30;;
33696;SDS011;20031;43.416;23.232;2023-06-14T04:28:12;14.55;;;2.85;;
33696;SDS011;20031;43.416;23.232;2023-06-14T04:30:40;11.00;;;2.72;;
33696;SDS011;20031;43.416;23.232;2023-06-14T04:33:09;9.02;;;2.65;;
33696;SDS011;20031;43.416;23.232;2023-06-14T04:35:36;13.80;;;2.25;;
33696;SDS011;20031;43.416;23.232;2023-06-14T04:38:02;11.15;;;2.33;;
33696;SDS011;20031;43.416;23.232;2023-06-14T04:40:35;5.05;;;2.28;;
33696;SDS011;20031;43.416;23.232;2023-06-14T04:45:37;13.43;;;2.72;;
33696;SDS011;20031;43.416;23.232;2023-06-14T04:48:04;14.35;;;2.95;;
33696;SDS011;20031;43.416;23.232;2023-06-14T04:50:31;6.80;;;2.90;;
33696;SDS011;20031;43.416;23.232;2023-06-14T04:52:57;9.15;;;2.40;;
33696;SDS011;20031;43.416;23.232;2023-06-14T04:55:24;4.03;;;2.45;;
33696;SDS011;20031;43.416;23.232;2023-06-14T04:57:51;9.90;;;3.13;;
33696;SDS011;20031;43.416;23.232;2023-06-14T05:00:18;7.60;;;2.53;;
33696;SDS011;20031;43.416;23.232;2023-06-14T05:02:44;3.60;;;2.47;;
33696;SDS011;20031;43.416;23.232;2023-06-14T05:05:12;11.63;;;2.58;;
33696;SDS011;20031;43.416;23.232;2023-06-14T05:07:37;13.60;;;3.85;;
33696;SDS011;20031;43.416;23.232;2023-06-14T05:10:03;29.10;;;5.13;;
33696;SDS011;20031;43.416;23.232;2023-06-14T05:12:30;27.42;;;5.35;;
33696;SDS011;20031;43.416;23.232;2023-06-14T05:14:55;42.55;;;6.70;;
33696;SDS011;20031;43.416;23.232;2023-06-14T05:17:23;43.20;;;7.63;;
33696;SDS011;20031;43.416;23.232;2023-06-14T05:19:49;9.82;;;3.67;;
33696;SDS011;20031;43.416;23.232;2023-06-14T05:22:14;19.98;;;4.65;;
33696;SDS011;20031;43.416;23.232;2023-06-14T05:24:40;18.17;;;5.10;;
33696;SDS011;20031;43.416;23.232;2023-06-14T05:27:06;10.98;;;3.70;;
33696;SDS011;20031;43.416;23.232;2023-06-14T05:29:32;21.35;;;4.80;;
33696;SDS011;20031;43.416;23.232;2023-06-14T05:31:57;9.60;;;3.50;;
33696;SDS011;20031;43.416;23.232;2023-06-14T05:34:23;8.43;;;3.58;;
33696;SDS011;20031;43.416;23.232;2023-06-14T05:36:48;4.88;;;3.28;;
33696;SDS011;20031;43.416;23.232;2023-06-14T05:39:13;10.30;;;3.88;;
33696;SDS011;20031;43.416;23.232;2023-06-14T05:41:39;10.25;;;3.47;;
33696;SDS011;20031;43.416;23.232;2023-06-14T05:44:05;8.75;;;3.38;;
33696;SDS011;20031;43.416;23.232;2023-06-14T05:46:30;6.22;;;3.75;;
33696;SDS011;20031;43.416;23.232;2023-06-14T05:48:56;24.75;;;6.40;;
33696;SDS011;20031;43.416;23.232;2023-06-14T05:51:22;16.88;;;4.97;;
33696;SDS011;20031;43.416;23.232;2023-06-14T05:53:49;8.45;;;3.53;;
33696;SDS011;20031;43.416;23.232;2023-06-14T05:56:15;15.45;;;4.82;;
33696;SDS011;20031;43.416;23.232;2023-06-14T05:58:42;12.77;;;5.10;;
33696;SDS011;20031;43.416;23.232;2023-06-14T06:01:08;15.65;;;4.80;;
33696;SDS011;20031;43.416;23.232;2023-06-14T06:03:35;16.33;;;4.57;;
33696;SDS011;20031;43.416;23.232;2023-06-14T06:06:01;20.67;;;5.47;;
33696;SDS011;20031;43.416;23.232;2023-06-14T06:08:29;13.93;;;4.13;;
33696;SDS011;20031;43.416;23.232;2023-06-14T06:10:55;7.15;;;3.78;;
33696;SDS011;20031;43.416;23.232;2023-06-14T06:13:21;10.23;;;3.78;;
33696;SDS011;20031;43.416;23.232;2023-06-14T06:15:48;7.43;;;3.72;;
33696;SDS011;20031;43.416;23.232;2023-06-14T06:18:15;11.75;;;4.00;;
33696;SDS011;20031;43.416;23.232;2023-06-14T06:20:44;12.07;;;4.28;;
33696;SDS011;20031;43.416;23.232;2023-06-14T06:23:12;12.90;;;4.28;;
33696;SDS011;20031;43.416;23.232;2023-06-14T06:25:38;13.13;;;3.88;;
33696;SDS011;20031;43.416;23.232;2023-06-14T06:28:03;7.10;;;3.88;;
33696;SDS011;20031;43.416;23.232;2023-06-14T06:30:29;6.50;;;3.97;;
33696;SDS011;20031;43.416;23.232;2023-06-14T06:32:55;9.82;;;4.50;;
33696;SDS011;20031;43.416;23.232;2023-06-14T06:35:20;9.55;;;4.00;;
33696;SDS011;20031;43.416;23.232;2023-06-14T06:37:46;10.55;;;4.28;;
33696;SDS011;20031;43.416;23.232;2023-06-14T06:40:11;7.15;;;4.30;;
33696;SDS011;20031;43.416;23.232;2023-06-14T06:42:37;6.50;;;4.60;;
33696;SDS011;20031;43.416;23.232;2023-06-14T06:45:03;14.65;;;5.28;;
33696;SDS011;20031;43.416;23.232;2023-06-14T06:47:29;9.30;;;4.70;;
33696;SDS011;20031;43.416;23.232;2023-06-14T06:49:55;13.00;;;4.45;;
33696;SDS011;20031;43.416;23.232;2023-06-14T06:52:20;20.20;;;5.35;;
33696;SDS011;20031;43.416;23.232;2023-06-14T06:54:45;10.75;;;4.22;;
33696;SDS011;20031;43.416;23.232;2023-06-14T06:57:11;9.30;;;4.70;;
33696;SDS011;20031;43.416;23.232;2023-06-14T06:59:37;6.70;;;4.70;;
33696;SDS011;20031;43.416;23.232;2023-06-14T07:02:02;10.85;;;4.93;;
33696;SDS011;20031;43.416;23.232;2023-06-14T07:04:28;11.27;;;4.63;;
33696;SDS011;20031;43.416;23.232;2023-06-14T07:06:54;12.40;;;5.30;;
33696;SDS011;20031;43.416;23.232;2023-06-14T07:09:20;11.88;;;4.70;;
33696;SDS011;20031;43.416;23.232;2023-06-14T07:11:46;9.60;;;5.03;;
33696;SDS011;20031;43.416;23.232;2023-06-14T07:14:12;10.00;;;4.45;;
33696;SDS011;20031;43.416;23.232;2023-06-14T07:16:38;6.97;;;4.93;;
33696;SDS011;20031;43.416;23.232;2023-06-14T07:19:03;8.50;;;4.57;;
33696;SDS011;20031;43.416;23.232;2023-06-14T07:21:29;6.43;;;4.60;;
33696;SDS011;20031;43.416;23.232;2023-06-14T07:23:55;9.82;;;5.20;;
33696;SDS011;20031;43.416;23.232;2023-06-14T07:26:21;7.15;;;4.93;;
33696;SDS011;20031;43.416;23.232;2023-06-14T07:28:47;5.82;;;4.68;;
33696;SDS011;20031;43.416;23.232;2023-06-14T07:31:13;9.10;;;5.10;;
33696;SDS011;20031;43.416;23.232;2023-06-14T07:33:40;9.25;;;3.97;;
33696;SDS011;20031;43.416;23.232;2023-06-14T07:36:06;12.55;;;3.55;;
33696;SDS011;20031;43.416;23.232;2023-06-14T07:38:32;14.77;;;3.30;;
33696;SDS011;20031;43.416;23.232;2023-06-14T07:40:57;4.93;;;3.63;;
33696;SDS011;20031;43.416;23.232;2023-06-14T07:43:22;12.32;;;4.10;;
33696;SDS011;20031;43.416;23.232;2023-06-14T07:45:48;6.15;;;3.35;;
33696;SDS011;20031;43.416;23.232;2023-06-14T07:48:13;6.07;;;3.30;;
33696;SDS011;20031;43.416;23.232;2023-06-14T07:50:39;6.80;;;3.58;;
33696;SDS011;20031;43.416;23.232;2023-06-14T07:53:05;7.68;;;3.78;;
33696;SDS011;20031;43.416;23.232;2023-06-14T07:55:30;6.13;;;3.78;;
33696;SDS011;20031;43.416;23.232;2023-06-14T07:57:57;5.75;;;3.30;;
33696;SDS011;20031;43.416;23.232;2023-06-14T08:00:23;9.10;;;3.53;;
33696;SDS011;20031;43.416;23.232;2023-06-14T08:02:49;7.95;;;3.95;;
33696;SDS011;20031;43.416;23.232;2023-06-14T08:05:17;5.10;;;2.75;;
33696;SDS011;20031;43.416;23.232;2023-06-14T08:07:42;9.88;;;3.17;;
33696;SDS011;20031;43.416;23.232;2023-06-14T08:10:08;8.18;;;3.03;;
33696;SDS011;20031;43.416;23.232;2023-06-14T08:12:34;7.28;;;2.75;;
33696;SDS011;20031;43.416;23.232;2023-06-14T08:14:59;6.47;;;2.90;;
33696;SDS011;20031;43.416;23.232;2023-06-14T08:17:25;4.15;;;2.95;;
33696;SDS011;20031;43.416;23.232;2023-06-14T08:19:51;15.60;;;3.40;;
33696;SDS011;20031;43.416;23.232;2023-06-14T08:22:17;10.63;;;3.47;;
33696;SDS011;20031;43.416;23.232;2023-06-14T08:24:43;9.27;;;3.10;;
33696;SDS011;20031;43.416;23.232;2023-06-14T08:27:09;9.15;;;3.45;;
33696;SDS011;20031;43.416;23.232;2023-06-14T08:29:35;4.15;;;2.55;;
33696;SDS011;20031;43.416;23.232;2023-06-14T08:32:00;14.27;;;2.90;;
33696;SDS011;20031;43.416;23.232;2023-06-14T08:34:27;5.65;;;2.72;;
33696;SDS011;20031;43.416;23.232;2023-06-14T08:36:52;4.60;;;2.17;;
33696;SDS011;20031;43.416;23.232;2023-06-14T08:39:18;5.82;;;2.58;;
33696;SDS011;20031;43.416;23.232;2023-06-14T08:41:45;8.75;;;2.80;;
33696;SDS011;20031;43.416;23.232;2023-06-14T08:44:16;4.55;;;2.60;;
33696;SDS011;20031;43.416;23.232;2023-06-14T08:46:42;5.43;;;2.70;;
33696;SDS011;20031;43.416;23.232;2023-06-14T08:49:08;9.07;;;2.58;;
33696;SDS011;20031;43.416;23.232;2023-06-14T08:51:36;5.70;;;2.35;;
33696;SDS011;20031;43.416;23.232;2023-06-14T08:54:02;6.78;;;2.60;;
33696;SDS011;20031;43.416;23.232;2023-06-14T08:56:29;10.40;;;3.05;;
33696;SDS011;20031;43.416;23.232;2023-06-14T08:58:56;7.47;;;3.30;;
33696;SDS011;20031;43.416;23.232;2023-06-14T09:01:29;8.27;;;3.00;;
33696;SDS011;20031;43.416;23.232;2023-06-14T09:03:59;11.05;;;3.35;;
33696;SDS011;20031;43.416;23.232;2023-06-14T09:06:25;9.40;;;3.10;;
33696;SDS011;20031;43.416;23.232;2023-06-14T09:08:54;13.23;;;3.10;;
33696;SDS011;20031;43.416;23.232;2023-06-14T09:11:22;4.07;;;2.60;;
33696;SDS011;20031;43.416;23.232;2023-06-14T09:13:48;5.63;;;3.10;;
33696;SDS011;20031;43.416;23.232;2023-06-14T09:16:14;9.57;;;3.60;;
33696;SDS011;20031;43.416;23.232;2023-06-14T09:18:41;7.45;;;3.47;;
33696;SDS011;20031;43.416;23.232;2023-06-14T09:21:13;12.68;;;3.72;;
33696;SDS011;20031;43.416;23.232;2023-06-14T09:23:41;10.57;;;3.55;;
33696;SDS011;20031;43.416;23.232;2023-06-14T09:26:14;5.38;;;3.67;;
33696;SDS011;20031;43.416;23.232;2023-06-14T09:28:44;7.05;;;3.20;;
33696;SDS011;20031;43.416;23.232;2023-06-14T09:31:11;8.10;;;3.72;;
33696;SDS011;20031;43.416;23.232;2023-06-14T09:33:38;8.45;;;3.47;;
33696;SDS011;20031;43.416;23.232;2023-06-14T09:36:04;10.70;;;3.53;;
33696;SDS011;20031;43.416;23.232;2023-06-14T09:38:31;8.07;;;3.80;;
33696;SDS011;20031;43.416;23.232;2023-06-14T09:40:59;8.43;;;3.70;;
33696;SDS011;20031;43.416;23.232;2023-06-14T09:43:29;6.32;;;3.40;;
33696;SDS011;20031;43.416;23.232;2023-06-14T09:45:54;9.77;;;3.80;;
33696;SDS011;20031;43.416;23.232;2023-06-14T09:48:20;7.35;;;3.70;;
33696;SDS011;20031;43.416;23.232;2023-06-14T09:50:46;11.98;;;3.83;;
33696;SDS011;20031;43.416;23.232;2023-06-14T09:53:13;8.80;;;3.97;;
33696;SDS011;20031;43.416;23.232;2023-06-14T09:55:40;13.35;;;4.10;;
33696;SDS011;20031;43.416;23.232;2023-06-14T09:58:06;9.88;;;4.05;;
33696;SDS011;20031;43.416;23.232;2023-06-14T10:00:34;13.32;;;4.43;;
33696;SDS011;20031;43.416;23.232;2023-06-14T10:03:00;10.18;;;4.25;;
33696;SDS011;20031;43.416;23.232;2023-06-14T10:05:33;22.23;;;7.28;;
33696;SDS011;20031;43.416;23.232;2023-06-14T10:08:07;18.88;;;6.10;;
33696;SDS011;20031;43.416;23.232;2023-06-14T10:10:34;12.10;;;5.45;;
33696;SDS011;20031;43.416;23.232;2023-06-14T10:12:59;18.02;;;4.90;;
33696;SDS011;20031;43.416;23.232;2023-06-14T10:18:12;15.55;;;5.68;;
33696;SDS011;20031;43.416;23.232;2023-06-14T10:23:30;11.52;;;3.83;;
33696;SDS011;20031;43.416;23.232;2023-06-14T10:26:00;16.88;;;5.93;;
33696;SDS011;20031;43.416;23.232;2023-06-14T10:28:26;17.08;;;5.47;;
33696;SDS011;20031;43.416;23.232;2023-06-14T10:31:01;10.45;;;3.92;;
33696;SDS011;20031;43.416;23.232;2023-06-14T10:33:29;8.00;;;3.88;;
33696;SDS011;20031;43.416;23.232;2023-06-14T10:36:11;12.80;;;4.25;;
33696;SDS011;20031;43.416;23.232;2023-06-14T10:39:15;5.47;;;3.40;;
33696;SDS011;20031;43.416;23.232;2023-06-14T10:41:42;10.43;;;3.30;;
33696;SDS011;20031;43.416;23.232;2023-06-14T10:46:48;6.22;;;2.90;;
33696;SDS011;20031;43.416;23.232;2023-06-14T10:49:18;10.85;;;2.85;;
33696;SDS011;20031;43.416;23.232;2023-06-14T10:51:45;8.15;;;3.70;;
33696;SDS011;20031;43.416;23.232;2023-06-14T10:54:15;15.85;;;3.55;;
33696;SDS011;20031;43.416;23.232;2023-06-14T10:56:48;6.22;;;3.22;;
33696;SDS011;20031;43.416;23.232;2023-06-14T10:59:13;8.00;;;4.28;;
33696;SDS011;20031;43.416;23.232;2023-06-14T11:05:42;8.18;;;3.63;;
33696;SDS011;20031;43.416;23.232;2023-06-14T11:08:20;9.75;;;3.67;;
33696;SDS011;20031;43.416;23.232;2023-06-14T11:10:48;3.88;;;3.00;;
33696;SDS011;20031;43.416;23.232;2023-06-14T11:13:18;4.72;;;2.92;;
33696;SDS011;20031;43.416;23.232;2023-06-14T11:15:44;3.90;;;3.00;;
33696;SDS011;20031;43.416;23.232;2023-06-14T11:18:12;6.68;;;3.00;;
33696;SDS011;20031;43.416;23.232;2023-06-14T11:20:39;6.60;;;2.80;;
33696;SDS011;20031;43.416;23.232;2023-06-14T11:23:05;4.18;;;2.60;;
33696;SDS011;20031;43.416;23.232;2023-06-14T11:25:31;5.50;;;2.72;;
33696;SDS011;20031;43.416;23.232;2023-06-14T11:27:57;5.30;;;3.00;;
33696;SDS011;20031;43.416;23.232;2023-06-14T11:30:24;4.15;;;2.97;;
33696;SDS011;20031;43.416;23.232;2023-06-14T11:32:51;10.82;;;3.47;;
33696;SDS011;20031;43.416;23.232;2023-06-14T11:35:18;7.25;;;3.30;;
33696;SDS011;20031;43.416;23.232;2023-06-14T11:37:48;5.70;;;3.35;;
33696;SDS011;20031;43.416;23.232;2023-06-14T11:40:14;9.05;;;3.90;;
33696;SDS011;20031;43.416;23.232;2023-06-14T11:42:40;8.57;;;3.42;;
33696;SDS011;20031;43.416;23.232;2023-06-14T11:45:10;8.25;;;4.05;;
33696;SDS011;20031;43.416;23.232;2023-06-14T11:47:37;11.65;;;4.40;;
33696;SDS011;20031;43.416;23.232;2023-06-14T11:50:05;8.60;;;3.17;;
33696;SDS011;20031;43.416;23.232;2023-06-14T11:52:33;4.85;;;3.13;;
33696;SDS011;20031;43.416;23.232;2023-06-14T11:54:59;6.95;;;3.45;;
33696;SDS011;20031;43.416;23.232;2023-06-14T11:57:26;13.32;;;3.42;;
33696;SDS011;20031;43.416;23.232;2023-06-14T11:59:51;6.20;;;3.10;;
33696;SDS011;20031;43.416;23.232;2023-06-14T12:02:18;7.10;;;2.90;;
33696;SDS011;20031;43.416;23.232;2023-06-14T12:04:47;8.65;;;4.07;;
33696;SDS011;20031;43.416;23.232;2023-06-14T12:07:14;8.10;;;4.70;;
33696;SDS011;20031;43.416;23.232;2023-06-14T12:09:42;11.73;;;4.50;;
33696;SDS011;20031;43.416;23.232;2023-06-14T12:12:34;11.23;;;3.55;;
33696;SDS011;20031;43.416;23.232;2023-06-14T12:15:02;4.30;;;3.53;;
33696;SDS011;20031;43.416;23.232;2023-06-14T12:17:33;8.52;;;3.47;;
33696;SDS011;20031;43.416;23.232;2023-06-14T12:20:04;4.55;;;3.05;;
33696;SDS011;20031;43.416;23.232;2023-06-14T12:22:33;7.25;;;3.80;;
33696;SDS011;20031;43.416;23.232;2023-06-14T12:24:59;7.22;;;4.18;;
33696;SDS011;20031;43.416;23.232;2023-06-14T12:27:25;7.07;;;3.90;;
33696;SDS011;20031;43.416;23.232;2023-06-14T12:30:03;7.18;;;3.80;;
33696;SDS011;20031;43.416;23.232;2023-06-14T12:32:29;14.15;;;3.88;;
33696;SDS011;20031;43.416;23.232;2023-06-14T12:34:55;12.82;;;4.35;;
33696;SDS011;20031;43.416;23.232;2023-06-14T12:37:20;8.57;;;3.97;;
33696;SDS011;20031;43.416;23.232;2023-06-14T12:39:46;13.60;;;4.40;;
33696;SDS011;20031;43.416;23.232;2023-06-14T12:42:12;10.02;;;4.57;;
33696;SDS011;20031;43.416;23.232;2023-06-14T12:44:42;9.75;;;4.50;;
33696;SDS011;20031;43.416;23.232;2023-06-14T12:47:14;7.88;;;3.08;;
33696;SDS011;20031;43.416;23.232;2023-06-14T12:49:43;4.22;;;3.13;;
33696;SDS011;20031;43.416;23.232;2023-06-14T12:52:12;8.23;;;2.90;;
33696;SDS011;20031;43.416;23.232;2023-06-14T12:54:38;15.90;;;3.17;;
33696;SDS011;20031;43.416;23.232;2023-06-14T12:57:05;8.55;;;3.42;;
33696;SDS011;20031;43.416;23.232;2023-06-14T12:59:31;9.07;;;4.45;;
33696;SDS011;20031;43.416;23.232;2023-06-14T13:02:09;6.13;;;2.92;;
33696;SDS011;20031;43.416;23.232;2023-06-14T13:04:43;10.25;;;4.68;;
33696;SDS011;20031;43.416;23.232;2023-06-14T13:07:09;9.77;;;3.40;;
33696;SDS011;20031;43.416;23.232;2023-06-14T13:09:41;6.90;;;3.33;;
33696;SDS011;20031;43.416;23.232;2023-06-14T13:12:07;7.93;;;3.28;;
33696;SDS011;20031;43.416;23.232;2023-06-14T13:14:33;6.82;;;3.88;;
33696;SDS011;20031;43.416;23.232;2023-06-14T13:16:59;8.05;;;3.17;;
33696;SDS011;20031;43.416;23.232;2023-06-14T13:19:24;4.80;;;3.17;;
33696;SDS011;20031;43.416;23.232;2023-06-14T13:21:50;5.38;;;3.10;;
33696;SDS011;20031;43.416;23.232;2023-06-14T13:24:16;9.65;;;3.10;;
33696;SDS011;20031;43.416;23.232;2023-06-14T13:26:41;3.50;;;2.83;;
33696;SDS011;20031;43.416;23.232;2023-06-14T13:29:08;6.55;;;3.17;;
33696;SDS011;20031;43.416;23.232;2023-06-14T13:31:34;6.03;;;2.90;;
33696;SDS011;20031;43.416;23.232;2023-06-14T13:33:59;5.63;;;2.80;;
33696;SDS011;20031;43.416;23.232;2023-06-14T13:36:25;5.50;;;3.05;;
33696;SDS011;20031;43.416;23.232;2023-06-14T13:38:50;10.00;;;3.42;;
33696;SDS011;20031;43.416;23.232;2023-06-14T13:41:17;6.25;;;2.95;;
33696;SDS011;20031;43.416;23.232;2023-06-14T13:43:43;12.68;;;3.55;;
33696;SDS011;20031;43.416;23.232;2023-06-14T13:46:08;7.28;;;3.17;;
33696;SDS011;20031;43.416;23.232;2023-06-14T13:48:33;9.15;;;3.67;;
33696;SDS011;20031;43.416;23.232;2023-06-14T13:50:59;6.20;;;3.13;;
33696;SDS011;20031;43.416;23.232;2023-06-14T13:53:25;4.88;;;3.20;;
33696;SDS011;20031;43.416;23.232;2023-06-14T13:55:51;4.97;;;3.22;;
33696;SDS011;20031;43.416;23.232;2023-06-14T13:58:17;8.18;;;3.20;;
33696;SDS011;20031;43.416;23.232;2023-06-14T14:00:43;9.30;;;3.20;;
33696;SDS011;20031;43.416;23.232;2023-06-14T14:03:09;6.15;;;3.00;;
33696;SDS011;20031;43.416;23.232;2023-06-14T14:05:35;11.35;;;3.63;;
33696;SDS011;20031;43.416;23.232;2023-06-14T14:08:00;6.72;;;3.53;;
33696;SDS011;20031;43.416;23.232;2023-06-14T14:10:26;6.22;;;3.42;;
33696;SDS011;20031;43.416;23.232;2023-06-14T14:12:52;7.22;;;3.35;;
33696;SDS011;20031;43.416;23.232;2023-06-14T14:15:18;6.38;;;3.17;;
33696;SDS011;20031;43.416;23.232;2023-06-14T14:17:44;12.07;;;3.40;;
33696;SDS011;20031;43.416;23.232;2023-06-14T14:20:09;5.47;;;3.67;;
33696;SDS011;20031;43.416;23.232;2023-06-14T14:22:37;10.55;;;4.20;;
33696;SDS011;20031;43.416;23.232;2023-06-14T14:25:03;10.93;;;3.70;;
33696;SDS011;20031;43.416;23.232;2023-06-14T14:27:28;8.00;;;3.60;;
33696;SDS011;20031;43.416;23.232;2023-06-14T14:29:54;10.75;;;3.10;;
33696;SDS011;20031;43.416;23.232;2023-06-14T14:32:19;5.38;;;3.38;;
33696;SDS011;20031;43.416;23.232;2023-06-14T14:34:45;17.63;;;4.70;;
33696;SDS011;20031;43.416;23.232;2023-06-14T14:37:10;8.13;;;3.20;;
33696;SDS011;20031;43.416;23.232;2023-06-14T14:39:36;9.60;;;3.50;;
33696;SDS011;20031;43.416;23.232;2023-06-14T14:42:02;9.35;;;3.42;;
33696;SDS011;20031;43.416;23.232;2023-06-14T14:44:27;10.93;;;3.75;;
33696;SDS011;20031;43.416;23.232;2023-06-14T14:46:53;5.40;;;3.38;;